sensor_id;sensor_type;location;lat;lon;timestamp;pressure;altitude;pressure_sealevel;temperature;humidity
57024;BME280;42916;54.346;18.562;2022-10-16T00:02:21;100111.22;;;12.88;100.00
57024;BME280;42916;54.346;18.562;2022-10-16T00:04:47;100114.00;;;12.91;100.00
57024;BME280;42916;54.346;18.562;2022-10-16T00:07:14;100115.79;;;12.94;100.00
57024;BME280;42916;54.346;18.562;2022-10-16T00:09:40;100110.26;;;12.97;100.00
57024;BME280;42916;54.346;18.562;2022-10-16T00:12:07;100108.34;;;13.00;100.00
57024;BME280;42916;54.346;18.562;2022-10-16T00:14:34;100111.34;;;13.04;100.00
57024;BME280;42916;54.346;18.562;2022-10-16T00:17:00;100112.52;;;13.07;100.00
57024;BME280;42916;54.346;18.562;2022-10-16T00:19:27;100119.77;;;13.11;100.00
57024;BME280;42916;54.346;18.562;2022-10-16T00:21:54;100106.44;;;13.13;100.00
57024;BME280;42916;54.346;18.562;2022-10-16T00:24:20;100108.83;;;13.15;100.00
57024;BME280;42916;54.346;18.562;2022-10-16T00:26:49;100102.33;;;13.16;100.00
57024;BME280;42916;54.346;18.562;2022-10-16T00:29:16;100108.61;;;13.15;100.00
57024;BME280;42916;54.346;18.562;2022-10-16T00:31:42;100111.24;;;13.13;100.00
57024;BME280;42916;54.346;18.562;2022-10-16T00:34:09;100112.95;;;13.12;100.00
57024;BME280;42916;54.346;18.562;2022-10-16T00:36:36;100109.84;;;13.11;100.00
57024;BME280;42916;54.346;18.562;2022-10-16T00:39:03;100106.29;;;13.11;100.00
57024;BME280;42916;54.346;18.562;2022-10-16T00:41:30;100115.29;;;13.12;100.00
57024;BME280;42916;54.346;18.562;2022-10-16T00:43:59;100119.92;;;13.13;100.00
57024;BME280;42916;54.346;18.562;2022-10-16T00:46:39;100124.34;;;13.15;100.00
57024;BME280;42916;54.346;18.562;2022-10-16T00:49:10;100132.30;;;13.17;100.00
57024;BME280;42916;54.346;18.562;2022-10-16T00:51:50;100133.89;;;13.20;100.00
57024;BME280;42916;54.346;18.562;2022-10-16T00:56:46;100138.40;;;13.25;100.00
57024;BME280;42916;54.346;18.562;2022-10-16T00:59:20;100141.06;;;13.28;100.00
57024;BME280;42916;54.346;18.562;2022-10-16T01:01:47;100133.19;;;13.31;100.00
57024;BME280;42916;54.346;18.562;2022-10-16T01:04:14;100125.55;;;13.33;100.00
57024;BME280;42916;54.346;18.562;2022-10-16T01:07:05;100133.48;;;13.35;100.00
57024;BME280;42916;54.346;18.562;2022-10-16T01:12:46;100119.61;;;13.41;100.00
57024;BME280;42916;54.346;18.562;2022-10-16T01:15:29;100119.77;;;13.44;100.00
57024;BME280;42916;54.346;18.562;2022-10-16T01:18:06;100119.21;;;13.46;100.00
57024;BME280;42916;54.346;18.562;2022-10-16T01:20:52;100122.59;;;13.49;100.00
57024;BME280;42916;54.346;18.562;2022-10-16T01:28:57;100125.98;;;13.48;100.00
57024;BME280;42916;54.346;18.562;2022-10-16T01:31:29;100125.54;;;13.49;100.00
57024;BME280;42916;54.346;18.562;2022-10-16T01:34:15;100129.90;;;13.50;100.00
57024;BME280;42916;54.346;18.562;2022-10-16T01:37:10;100134.05;;;13.51;100.00
57024;BME280;42916;54.346;18.562;2022-10-16T01:39:39;100135.73;;;13.52;100.00
57024;BME280;42916;54.346;18.562;2022-10-16T01:42:15;100133.49;;;13.53;100.00
57024;BME280;42916;54.346;18.562;2022-10-16T01:44:45;100137.20;;;13.56;100.00
57024;BME280;42916;54.346;18.562;2022-10-16T01:47:14;100140.73;;;13.57;100.00
57024;BME280;42916;54.346;18.562;2022-10-16T01:49:43;100139.68;;;13.60;100.00
57024;BME280;42916;54.346;18.562;2022-10-16T01:52:15;100144.65;;;13.63;100.00
57024;BME280;42916;54.346;18.562;2022-10-16T01:54:46;100141.67;;;13.65;100.00
57024;BME280;42916;54.346;18.562;2022-10-16T01:57:16;100142.75;;;13.68;100.00
57024;BME280;42916;54.346;18.562;2022-10-16T01:59:53;100138.10;;;13.71;100.00
57024;BME280;42916;54.346;18.562;2022-10-16T02:02:22;100135.40;;;13.73;100.00
57024;BME280;42916;54.346;18.562;2022-10-16T02:04:56;100135.12;;;13.75;100.00
57024;BME280;42916;54.346;18.562;2022-10-16T02:07:24;100130.41;;;13.77;100.00
57024;BME280;42916;54.346;18.562;2022-10-16T02:09:51;100133.23;;;13.77;100.00
57024;BME280;42916;54.346;18.562;2022-10-16T02:12:28;100125.15;;;13.77;100.00
57024;BME280;42916;54.346;18.562;2022-10-16T02:14:57;100122.64;;;13.77;100.00
57024;BME280;42916;54.346;18.562;2022-10-16T02:17:24;100125.89;;;13.72;100.00
57024;BME280;42916;54.346;18.562;2022-10-16T02:19:53;100125.54;;;13.68;100.00
57024;BME280;42916;54.346;18.562;2022-10-16T02:22:26;100126.48;;;13.62;100.00
57024;BME280;42916;54.346;18.562;2022-10-16T02:24:57;100119.92;;;13.55;100.00
57024;BME280;42916;54.346;18.562;2022-10-16T02:27:42;100115.16;;;13.49;100.00
57024;BME280;42916;54.346;18.562;2022-10-16T02:30:27;100124.42;;;13.41;100.00
57024;BME280;42916;54.346;18.562;2022-10-16T02:32:57;100123.04;;;13.33;100.00
57024;BME280;42916;54.346;18.562;2022-10-16T02:35:25;100125.61;;;13.27;100.00
57024;BME280;42916;54.346;18.562;2022-10-16T02:37:54;100121.31;;;13.21;100.00
57024;BME280;42916;54.346;18.562;2022-10-16T02:40:22;100117.23;;;13.15;100.00
57024;BME280;42916;54.346;18.562;2022-10-16T02:42:51;100117.58;;;13.11;100.00
57024;BME280;42916;54.346;18.562;2022-10-16T02:45:18;100126.44;;;13.08;100.00
57024;BME280;42916;54.346;18.562;2022-10-16T02:47:44;100123.34;;;13.06;100.00
57024;BME280;42916;54.346;18.562;2022-10-16T02:50:11;100124.93;;;13.04;100.00
57024;BME280;42916;54.346;18.562;2022-10-16T02:52:38;100134.33;;;13.01;100.00
57024;BME280;42916;54.346;18.562;2022-10-16T02:55:05;100120.91;;;12.98;100.00
57024;BME280;42916;54.346;18.562;2022-10-16T02:57:32;100118.08;;;12.94;100.00
57024;BME280;42916;54.346;18.562;2022-10-16T02:59:58;100122.18;;;12.92;100.00
57024;BME280;42916;54.346;18.562;2022-10-16T03:02:25;100123.66;;;12.92;100.00
57024;BME280;42916;54.346;18.562;2022-10-16T03:04:52;100121.41;;;12.91;100.00
57024;BME280;42916;54.346;18.562;2022-10-16T03:07:18;100118.25;;;12.92;100.00
57024;BME280;42916;54.346;18.562;2022-10-16T03:09:45;100114.21;;;12.93;100.00
57024;BME280;42916;54.346;18.562;2022-10-16T03:12:12;100110.22;;;12.92;100.00
57024;BME280;42916;54.346;18.562;2022-10-16T03:14:38;100109.95;;;12.93;100.00
57024;BME280;42916;54.346;18.562;2022-10-16T03:17:06;100111.26;;;12.93;100.00
57024;BME280;42916;54.346;18.562;2022-10-16T03:19:32;100113.23;;;12.93;100.00
57024;BME280;42916;54.346;18.562;2022-10-16T03:21:59;100109.72;;;12.93;100.00
57024;BME280;42916;54.346;18.562;2022-10-16T03:24:26;100110.00;;;12.95;100.00
57024;BME280;42916;54.346;18.562;2022-10-16T03:26:52;100114.14;;;12.97;100.00
57024;BME280;42916;54.346;18.562;2022-10-16T03:29:19;100119.86;;;12.99;100.00
57024;BME280;42916;54.346;18.562;2022-10-16T03:31:45;100123.73;;;13.03;100.00
57024;BME280;42916;54.346;18.562;2022-10-16T03:34:12;100129.13;;;13.07;100.00
57024;BME280;42916;54.346;18.562;2022-10-16T03:36:39;100121.85;;;13.11;100.00
57024;BME280;42916;54.346;18.562;2022-10-16T03:39:05;100116.82;;;13.12;100.00
57024;BME280;42916;54.346;18.562;2022-10-16T03:41:32;100118.02;;;13.14;100.00
57024;BME280;42916;54.346;18.562;2022-10-16T03:43:58;100118.88;;;13.16;100.00
57024;BME280;42916;54.346;18.562;2022-10-16T03:46:25;100118.11;;;13.18;100.00
57024;BME280;42916;54.346;18.562;2022-10-16T03:48:51;100120.77;;;13.21;100.00
57024;BME280;42916;54.346;18.562;2022-10-16T03:51:18;100117.02;;;13.22;100.00
57024;BME280;42916;54.346;18.562;2022-10-16T03:53:45;100113.81;;;13.23;100.00
57024;BME280;42916;54.346;18.562;2022-10-16T03:56:13;100116.45;;;13.23;100.00
57024;BME280;42916;54.346;18.562;2022-10-16T03:58:39;100117.49;;;13.22;100.00
57024;BME280;42916;54.346;18.562;2022-10-16T04:01:06;100123.59;;;13.23;100.00
57024;BME280;42916;54.346;18.562;2022-10-16T04:03:33;100125.52;;;13.25;100.00
57024;BME280;42916;54.346;18.562;2022-10-16T04:05:59;100113.15;;;13.28;100.00
57024;BME280;42916;54.346;18.562;2022-10-16T04:08:26;100117.14;;;13.30;100.00
57024;BME280;42916;54.346;18.562;2022-10-16T04:10:53;100117.20;;;13.32;100.00
57024;BME280;42916;54.346;18.562;2022-10-16T04:13:19;100124.85;;;13.33;100.00
57024;BME280;42916;54.346;18.562;2022-10-16T04:15:46;100129.42;;;13.34;100.00
57024;BME280;42916;54.346;18.562;2022-10-16T04:18:13;100137.56;;;13.35;100.00
57024;BME280;42916;54.346;18.562;2022-10-16T04:20:40;100137.08;;;13.36;100.00
57024;BME280;42916;54.346;18.562;2022-10-16T04:23:07;100135.60;;;13.35;100.00
57024;BME280;42916;54.346;18.562;2022-10-16T04:25:33;100139.33;;;13.34;100.00
57024;BME280;42916;54.346;18.562;2022-10-16T04:28:00;100137.46;;;13.32;100.00
57024;BME280;42916;54.346;18.562;2022-10-16T04:30:27;100139.48;;;13.32;100.00
57024;BME280;42916;54.346;18.562;2022-10-16T04:32:53;100135.77;;;13.31;100.00
57024;BME280;42916;54.346;18.562;2022-10-16T04:35:21;100134.34;;;13.30;100.00
57024;BME280;42916;54.346;18.562;2022-10-16T04:37:48;100139.70;;;13.28;100.00
57024;BME280;42916;54.346;18.562;2022-10-16T04:40:15;100142.04;;;13.28;100.00
57024;BME280;42916;54.346;18.562;2022-10-16T04:42:41;100148.06;;;13.27;100.00
57024;BME280;42916;54.346;18.562;2022-10-16T04:45:08;100143.81;;;13.26;100.00
57024;BME280;42916;54.346;18.562;2022-10-16T04:47:35;100141.84;;;13.26;100.00
57024;BME280;42916;54.346;18.562;2022-10-16T04:50:02;100139.55;;;13.27;100.00
57024;BME280;42916;54.346;18.562;2022-10-16T04:52:29;100143.42;;;13.26;100.00
57024;BME280;42916;54.346;18.562;2022-10-16T04:54:58;100148.23;;;13.26;100.00
57024;BME280;42916;54.346;18.562;2022-10-16T04:57:28;100152.59;;;13.27;100.00
57024;BME280;42916;54.346;18.562;2022-10-16T04:59:56;100152.25;;;13.30;100.00
57024;BME280;42916;54.346;18.562;2022-10-16T05:02:23;100148.98;;;13.31;100.00
57024;BME280;42916;54.346;18.562;2022-10-16T05:04:50;100150.36;;;13.32;100.00
57024;BME280;42916;54.346;18.562;2022-10-16T05:07:17;100148.13;;;13.32;100.00
57024;BME280;42916;54.346;18.562;2022-10-16T05:09:43;100148.12;;;13.33;100.00
57024;BME280;42916;54.346;18.562;2022-10-16T05:12:10;100152.86;;;13.37;100.00
57024;BME280;42916;54.346;18.562;2022-10-16T05:14:37;100151.98;;;13.39;100.00
57024;BME280;42916;54.346;18.562;2022-10-16T05:17:04;100146.34;;;13.40;100.00
57024;BME280;42916;54.346;18.562;2022-10-16T05:19:31;100147.80;;;13.42;100.00
57024;BME280;42916;54.346;18.562;2022-10-16T05:21:57;100147.09;;;13.42;100.00
57024;BME280;42916;54.346;18.562;2022-10-16T05:24:24;100149.39;;;13.44;100.00
57024;BME280;42916;54.346;18.562;2022-10-16T05:26:51;100155.29;;;13.44;100.00
57024;BME280;42916;54.346;18.562;2022-10-16T05:29:18;100157.52;;;13.45;100.00
57024;BME280;42916;54.346;18.562;2022-10-16T05:31:45;100162.38;;;13.48;100.00
57024;BME280;42916;54.346;18.562;2022-10-16T05:34:11;100164.66;;;13.49;100.00
57024;BME280;42916;54.346;18.562;2022-10-16T05:36:38;100164.86;;;13.51;100.00
57024;BME280;42916;54.346;18.562;2022-10-16T05:39:04;100163.49;;;13.53;100.00
57024;BME280;42916;54.346;18.562;2022-10-16T05:41:31;100157.36;;;13.55;100.00
57024;BME280;42916;54.346;18.562;2022-10-16T05:43:58;100159.44;;;13.57;100.00
57024;BME280;42916;54.346;18.562;2022-10-16T05:46:24;100164.17;;;13.60;100.00
57024;BME280;42916;54.346;18.562;2022-10-16T05:48:52;100161.05;;;13.62;100.00
57024;BME280;42916;54.346;18.562;2022-10-16T05:51:19;100171.33;;;13.63;100.00
57024;BME280;42916;54.346;18.562;2022-10-16T05:53:46;100172.35;;;13.64;100.00
57024;BME280;42916;54.346;18.562;2022-10-16T05:56:13;100170.16;;;13.65;100.00
57024;BME280;42916;54.346;18.562;2022-10-16T05:58:40;100178.52;;;13.67;100.00
57024;BME280;42916;54.346;18.562;2022-10-16T06:01:11;100183.30;;;13.70;100.00
57024;BME280;42916;54.346;18.562;2022-10-16T06:03:39;100181.17;;;13.72;100.00
57024;BME280;42916;54.346;18.562;2022-10-16T06:08:37;100191.20;;;13.78;100.00
57024;BME280;42916;54.346;18.562;2022-10-16T06:11:06;100194.52;;;13.79;100.00
57024;BME280;42916;54.346;18.562;2022-10-16T06:13:33;100199.23;;;13.80;100.00
57024;BME280;42916;54.346;18.562;2022-10-16T06:16:01;100212.00;;;13.81;100.00
57024;BME280;42916;54.346;18.562;2022-10-16T06:18:28;100216.98;;;13.84;100.00
57024;BME280;42916;54.346;18.562;2022-10-16T06:20:56;100217.23;;;13.85;100.00
57024;BME280;42916;54.346;18.562;2022-10-16T06:23:24;100222.00;;;13.86;100.00
57024;BME280;42916;54.346;18.562;2022-10-16T06:25:51;100224.55;;;13.86;100.00
57024;BME280;42916;54.346;18.562;2022-10-16T06:28:18;100234.23;;;13.86;100.00
57024;BME280;42916;54.346;18.562;2022-10-16T06:30:44;100235.72;;;13.86;100.00
57024;BME280;42916;54.346;18.562;2022-10-16T06:33:12;100234.89;;;13.86;100.00
57024;BME280;42916;54.346;18.562;2022-10-16T06:35:39;100236.42;;;13.87;100.00
57024;BME280;42916;54.346;18.562;2022-10-16T06:38:05;100243.58;;;13.87;100.00
57024;BME280;42916;54.346;18.562;2022-10-16T06:40:32;100243.64;;;13.87;100.00
57024;BME280;42916;54.346;18.562;2022-10-16T06:42:59;100243.46;;;13.88;100.00
57024;BME280;42916;54.346;18.562;2022-10-16T06:45:26;100241.61;;;13.88;100.00
57024;BME280;42916;54.346;18.562;2022-10-16T06:47:52;100240.52;;;13.89;100.00
57024;BME280;42916;54.346;18.562;2022-10-16T06:50:19;100242.83;;;13.88;100.00
57024;BME280;42916;54.346;18.562;2022-10-16T06:52:46;100248.67;;;13.87;100.00
57024;BME280;42916;54.346;18.562;2022-10-16T06:55:12;100238.80;;;13.85;100.00
57024;BME280;42916;54.346;18.562;2022-10-16T06:57:39;100245.19;;;13.84;100.00
57024;BME280;42916;54.346;18.562;2022-10-16T07:00:06;100242.84;;;13.83;100.00
57024;BME280;42916;54.346;18.562;2022-10-16T07:02:33;100245.69;;;13.82;100.00
57024;BME280;42916;54.346;18.562;2022-10-16T07:04:59;100247.34;;;13.81;100.00
57024;BME280;42916;54.346;18.562;2022-10-16T07:07:26;100245.41;;;13.83;100.00
57024;BME280;42916;54.346;18.562;2022-10-16T07:09:53;100242.83;;;13.86;100.00
57024;BME280;42916;54.346;18.562;2022-10-16T07:12:19;100234.23;;;13.89;100.00
57024;BME280;42916;54.346;18.562;2022-10-16T07:14:46;100243.55;;;13.94;100.00
57024;BME280;42916;54.346;18.562;2022-10-16T07:17:13;100237.17;;;13.99;100.00
57024;BME280;42916;54.346;18.562;2022-10-16T07:19:39;100238.20;;;14.03;100.00
57024;BME280;42916;54.346;18.562;2022-10-16T07:22:06;100239.65;;;14.09;100.00
57024;BME280;42916;54.346;18.562;2022-10-16T07:24:32;100244.82;;;14.14;100.00
57024;BME280;42916;54.346;18.562;2022-10-16T07:26:59;100249.98;;;14.20;100.00
57024;BME280;42916;54.346;18.562;2022-10-16T07:29:26;100246.66;;;14.24;100.00
57024;BME280;42916;54.346;18.562;2022-10-16T07:31:52;100254.35;;;14.27;100.00
57024;BME280;42916;54.346;18.562;2022-10-16T07:34:19;100254.08;;;14.29;100.00
57024;BME280;42916;54.346;18.562;2022-10-16T07:36:51;100255.69;;;14.31;100.00
57024;BME280;42916;54.346;18.562;2022-10-16T07:39:18;100263.35;;;14.32;100.00
57024;BME280;42916;54.346;18.562;2022-10-16T07:41:44;100266.30;;;14.33;100.00
57024;BME280;42916;54.346;18.562;2022-10-16T07:44:11;100268.05;;;14.35;100.00
57024;BME280;42916;54.346;18.562;2022-10-16T07:46:38;100277.45;;;14.35;100.00
57024;BME280;42916;54.346;18.562;2022-10-16T07:49:04;100275.33;;;14.36;100.00
57024;BME280;42916;54.346;18.562;2022-10-16T07:51:32;100276.78;;;14.37;100.00
57024;BME280;42916;54.346;18.562;2022-10-16T07:53:59;100272.57;;;14.39;100.00
57024;BME280;42916;54.346;18.562;2022-10-16T07:56:25;100271.83;;;14.41;100.00
57024;BME280;42916;54.346;18.562;2022-10-16T07:58:52;100275.27;;;14.43;100.00
57024;BME280;42916;54.346;18.562;2022-10-16T08:01:19;100280.05;;;14.48;100.00
57024;BME280;42916;54.346;18.562;2022-10-16T08:03:48;100282.73;;;14.56;100.00
57024;BME280;42916;54.346;18.562;2022-10-16T08:06:17;100291.60;;;14.59;100.00
57024;BME280;42916;54.346;18.562;2022-10-16T08:08:44;100298.77;;;14.62;100.00
57024;BME280;42916;54.346;18.562;2022-10-16T08:11:10;100300.83;;;14.65;100.00
57024;BME280;42916;54.346;18.562;2022-10-16T08:13:37;100311.79;;;14.71;100.00
57024;BME280;42916;54.346;18.562;2022-10-16T08:16:04;100313.55;;;14.77;100.00
57024;BME280;42916;54.346;18.562;2022-10-16T08:18:35;100317.67;;;14.82;100.00
57024;BME280;42916;54.346;18.562;2022-10-16T08:21:02;100318.23;;;14.88;100.00
57024;BME280;42916;54.346;18.562;2022-10-16T08:23:31;100324.25;;;14.96;100.00
57024;BME280;42916;54.346;18.562;2022-10-16T08:26:04;100325.02;;;15.01;100.00
57024;BME280;42916;54.346;18.562;2022-10-16T08:28:32;100331.47;;;15.04;100.00
57024;BME280;42916;54.346;18.562;2022-10-16T08:31:09;100325.86;;;15.06;100.00
57024;BME280;42916;54.346;18.562;2022-10-16T08:33:38;100324.34;;;15.04;100.00
57024;BME280;42916;54.346;18.562;2022-10-16T08:36:05;100332.25;;;15.02;100.00
57024;BME280;42916;54.346;18.562;2022-10-16T08:38:33;100338.43;;;15.03;100.00
57024;BME280;42916;54.346;18.562;2022-10-16T08:44:09;100338.46;;;15.07;100.00
57024;BME280;42916;54.346;18.562;2022-10-16T08:49:32;100338.71;;;15.10;100.00
57024;BME280;42916;54.346;18.562;2022-10-16T08:51:59;100341.88;;;15.12;100.00
57024;BME280;42916;54.346;18.562;2022-10-16T08:54:34;100339.86;;;15.11;100.00
57024;BME280;42916;54.346;18.562;2022-10-16T08:57:11;100342.45;;;15.08;100.00
57024;BME280;42916;54.346;18.562;2022-10-16T08:59:38;100346.38;;;15.03;100.00
57024;BME280;42916;54.346;18.562;2022-10-16T09:02:35;100347.27;;;15.01;100.00
57024;BME280;42916;54.346;18.562;2022-10-16T09:13:21;100350.83;;;15.14;100.00
57024;BME280;42916;54.346;18.562;2022-10-16T09:18:37;100345.54;;;15.25;100.00
57024;BME280;42916;54.346;18.562;2022-10-16T09:21:38;100341.16;;;15.26;100.00
57024;BME280;42916;54.346;18.562;2022-10-16T09:26:37;100349.48;;;15.28;100.00
57024;BME280;42916;54.346;18.562;2022-10-16T09:29:04;100351.20;;;15.29;100.00
57024;BME280;42916;54.346;18.562;2022-10-16T09:31:31;100349.71;;;15.29;100.00
57024;BME280;42916;54.346;18.562;2022-10-16T09:33:59;100346.50;;;15.28;100.00
57024;BME280;42916;54.346;18.562;2022-10-16T09:36:27;100343.90;;;15.31;100.00
57024;BME280;42916;54.346;18.562;2022-10-16T09:39:21;100351.38;;;15.35;100.00
57024;BME280;42916;54.346;18.562;2022-10-16T09:41:48;100356.14;;;15.34;100.00
57024;BME280;42916;54.346;18.562;2022-10-16T09:44:30;100366.38;;;15.31;100.00
57024;BME280;42916;54.346;18.562;2022-10-16T09:47:11;100370.49;;;15.29;100.00
57024;BME280;42916;54.346;18.562;2022-10-16T09:49:39;100369.31;;;15.27;100.00
57024;BME280;42916;54.346;18.562;2022-10-16T09:52:12;100368.91;;;15.28;100.00
57024;BME280;42916;54.346;18.562;2022-10-16T09:54:50;100360.73;;;15.30;100.00
57024;BME280;42916;54.346;18.562;2022-10-16T09:57:17;100370.91;;;15.33;100.00
57024;BME280;42916;54.346;18.562;2022-10-16T09:59:52;100375.64;;;15.37;100.00
57024;BME280;42916;54.346;18.562;2022-10-16T10:02:28;100371.52;;;15.37;100.00
57024;BME280;42916;54.346;18.562;2022-10-16T10:04:56;100375.73;;;15.37;100.00
57024;BME280;42916;54.346;18.562;2022-10-16T10:07:32;100377.20;;;15.38;100.00
57024;BME280;42916;54.346;18.562;2022-10-16T10:10:03;100377.66;;;15.41;100.00
57024;BME280;42916;54.346;18.562;2022-10-16T10:12:32;100381.38;;;15.44;100.00
57024;BME280;42916;54.346;18.562;2022-10-16T10:15:07;100391.05;;;15.46;100.00
57024;BME280;42916;54.346;18.562;2022-10-16T10:17:49;100390.48;;;15.49;100.00
57024;BME280;42916;54.346;18.562;2022-10-16T10:22:52;100397.09;;;15.51;100.00
57024;BME280;42916;54.346;18.562;2022-10-16T10:38:31;100413.40;;;15.56;100.00
57024;BME280;42916;54.346;18.562;2022-10-16T10:41:13;100420.09;;;15.61;100.00
57024;BME280;42916;54.346;18.562;2022-10-16T10:44:10;100417.02;;;15.63;100.00
57024;BME280;42916;54.346;18.562;2022-10-16T10:46:50;100413.52;;;15.67;100.00
57024;BME280;42916;54.346;18.562;2022-10-16T10:52:39;100406.05;;;15.76;100.00
57024;BME280;42916;54.346;18.562;2022-10-16T10:55:35;100404.48;;;15.84;100.00
57024;BME280;42916;54.346;18.562;2022-10-16T11:00:53;100405.86;;;15.90;100.00
57024;BME280;42916;54.346;18.562;2022-10-16T11:06:33;100414.26;;;16.04;100.00
57024;BME280;42916;54.346;18.562;2022-10-16T11:11:49;100413.58;;;16.21;100.00
57024;BME280;42916;54.346;18.562;2022-10-16T11:14:35;100412.79;;;16.36;100.00
57024;BME280;42916;54.346;18.562;2022-10-16T11:17:15;100407.39;;;16.51;100.00
57024;BME280;42916;54.346;18.562;2022-10-16T11:25:18;100404.07;;;16.73;100.00
57024;BME280;42916;54.346;18.562;2022-10-16T11:27:55;100404.16;;;16.78;100.00
57024;BME280;42916;54.346;18.562;2022-10-16T11:30:26;100411.68;;;16.83;100.00
57024;BME280;42916;54.346;18.562;2022-10-16T11:33:00;100416.98;;;16.85;100.00
57024;BME280;42916;54.346;18.562;2022-10-16T11:35:48;100407.86;;;16.90;100.00
57024;BME280;42916;54.346;18.562;2022-10-16T11:41:34;100411.27;;;16.98;100.00
57024;BME280;42916;54.346;18.562;2022-10-16T11:49:40;100417.48;;;17.01;100.00
57024;BME280;42916;54.346;18.562;2022-10-16T11:52:30;100421.88;;;17.01;100.00
57024;BME280;42916;54.346;18.562;2022-10-16T11:57:42;100416.35;;;17.00;100.00
57024;BME280;42916;54.346;18.562;2022-10-16T12:00:22;100421.89;;;17.04;100.00
57024;BME280;42916;54.346;18.562;2022-10-16T12:02:58;100420.70;;;17.13;100.00
57024;BME280;42916;54.346;18.562;2022-10-16T12:08:15;100416.88;;;17.42;100.00
57024;BME280;42916;54.346;18.562;2022-10-16T12:10:45;100427.10;;;17.59;100.00
57024;BME280;42916;54.346;18.562;2022-10-16T12:13:32;100430.59;;;17.73;100.00
57024;BME280;42916;54.346;18.562;2022-10-16T12:18:41;100433.21;;;17.94;100.00
57024;BME280;42916;54.346;18.562;2022-10-16T12:21:08;100438.30;;;17.99;100.00
57024;BME280;42916;54.346;18.562;2022-10-16T12:23:46;100441.73;;;18.04;100.00
57024;BME280;42916;54.346;18.562;2022-10-16T12:26:13;100439.74;;;18.15;100.00
57024;BME280;42916;54.346;18.562;2022-10-16T12:28:40;100439.52;;;18.27;100.00
57024;BME280;42916;54.346;18.562;2022-10-16T12:31:08;100442.71;;;18.48;99.92
57024;BME280;42916;54.346;18.562;2022-10-16T12:33:53;100442.52;;;18.73;99.74
57024;BME280;42916;54.346;18.562;2022-10-16T12:36:33;100439.20;;;19.00;98.44
57024;BME280;42916;54.346;18.562;2022-10-16T12:39:01;100440.65;;;19.18;96.27
57024;BME280;42916;54.346;18.562;2022-10-16T12:41:31;100437.98;;;19.30;95.25
57024;BME280;42916;54.346;18.562;2022-10-16T12:43:59;100440.66;;;19.27;93.70
57024;BME280;42916;54.346;18.562;2022-10-16T12:49:22;100451.27;;;19.16;92.18
57024;BME280;42916;54.346;18.562;2022-10-16T12:51:55;100453.91;;;19.20;91.73
57024;BME280;42916;54.346;18.562;2022-10-16T13:13:13;100464.57;;;20.60;85.14
57024;BME280;42916;54.346;18.562;2022-10-16T13:21:33;100463.05;;;21.31;77.90
57024;BME280;42916;54.346;18.562;2022-10-16T13:29:18;100467.49;;;20.26;75.61
57024;BME280;42916;54.346;18.562;2022-10-16T13:31:45;100468.13;;;19.93;75.62
57024;BME280;42916;54.346;18.562;2022-10-16T13:34:17;100475.16;;;19.63;75.77
57024;BME280;42916;54.346;18.562;2022-10-16T13:36:48;100476.18;;;19.34;76.11
57024;BME280;42916;54.346;18.562;2022-10-16T13:42:04;100483.89;;;18.83;76.81
57024;BME280;42916;54.346;18.562;2022-10-16T13:44:39;100483.42;;;18.63;77.60
57024;BME280;42916;54.346;18.562;2022-10-16T13:47:15;100491.13;;;18.47;78.28
57024;BME280;42916;54.346;18.562;2022-10-16T13:49:42;100496.27;;;18.31;78.44
57024;BME280;42916;54.346;18.562;2022-10-16T13:52:20;100491.13;;;18.18;79.09
57024;BME280;42916;54.346;18.562;2022-10-16T13:54:47;100491.88;;;18.07;79.50
57024;BME280;42916;54.346;18.562;2022-10-16T13:57:14;100494.95;;;17.99;79.88
57024;BME280;42916;54.346;18.562;2022-10-16T13:59:41;100495.07;;;17.91;80.26
57024;BME280;42916;54.346;18.562;2022-10-16T14:02:28;100499.24;;;17.85;80.79
57024;BME280;42916;54.346;18.562;2022-10-16T14:04:57;100503.60;;;17.77;80.95
57024;BME280;42916;54.346;18.562;2022-10-16T14:07:26;100502.67;;;17.66;81.20
57024;BME280;42916;54.346;18.562;2022-10-16T14:09:55;100504.76;;;17.57;81.48
57024;BME280;42916;54.346;18.562;2022-10-16T14:12:23;100508.30;;;17.49;81.75
57024;BME280;42916;54.346;18.562;2022-10-16T14:14:52;100505.81;;;17.42;82.09
57024;BME280;42916;54.346;18.562;2022-10-16T14:17:26;100509.23;;;17.38;82.66
57024;BME280;42916;54.346;18.562;2022-10-16T14:19:56;100507.99;;;17.33;82.95
57024;BME280;42916;54.346;18.562;2022-10-16T14:22:40;100506.70;;;17.30;83.31
57024;BME280;42916;54.346;18.562;2022-10-16T14:30:36;100511.79;;;17.33;84.20
57024;BME280;42916;54.346;18.562;2022-10-16T14:33:21;100513.23;;;17.32;84.56
57024;BME280;42916;54.346;18.562;2022-10-16T14:38:26;100521.63;;;17.33;84.73
57024;BME280;42916;54.346;18.562;2022-10-16T14:40:52;100528.54;;;17.29;84.82
57024;BME280;42916;54.346;18.562;2022-10-16T14:43:33;100528.86;;;17.27;85.06
57024;BME280;42916;54.346;18.562;2022-10-16T14:46:02;100532.69;;;17.20;85.21
57024;BME280;42916;54.346;18.562;2022-10-16T14:48:30;100535.04;;;17.14;85.43
57024;BME280;42916;54.346;18.562;2022-10-16T14:50:57;100535.06;;;17.08;85.49
57024;BME280;42916;54.346;18.562;2022-10-16T14:53:23;100536.63;;;17.02;85.80